Time;durP1;ratioP1;P1;durP2;ratioP2;P2;SDS_P1;SDS_P2;PMS_P1;PMS_P2;Temp;Humidity;BMP_temperature;BMP_pressure;BME280_temperature;BME280_humidity;BME280_pressure;Samples;Min_cycle;Max_cycle;Signal;HPM_P1;HPM_P2
2021/11/23 00:06:18;;;;;;;16.17;11.15;;;23.40;56.40;;;;;;31602348;28;20104;-39
2021/11/23 00:21:20;;;;;;;37.10;23.80;;;23.20;56.30;;;;;;31567731;28;20056;-45
2021/11/23 00:36:22;;;;;;;30.05;21.88;;;23.20;55.80;;;;;;31526493;28;20115;-44
2021/11/23 00:51:24;;;;;;;26.70;19.23;;;23.10;56.10;;;;;;31589632;28;20048;-40
2021/11/23 01:06:26;;;;;;;25.45;19.17;;;23.00;56.40;;;;;;31594049;28;20050;-45
2021/11/23 01:21:28;;;;;;;24.20;17.15;;;23.00;56.40;;;;;;31568740;28;20413;-44
2021/11/23 01:36:31;;;;;;;20.70;16.23;;;23.00;56.70;;;;;;31484888;28;20049;-44
2021/11/23 01:51:34;;;;;;;21.65;15.27;;;22.90;56.80;;;;;;31497443;28;20102;-51
2021/11/23 02:06:36;;;;;;;19.20;14.00;;;22.90;57.00;;;;;;31575927;28;20074;-42
2021/11/23 02:21:38;;;;;;;15.90;12.27;;;22.80;57.50;;;;;;31555712;28;20044;-38
2021/11/23 02:36:41;;;;;;;14.90;11.23;;;22.90;57.70;;;;;;31562951;28;20044;-44
2021/11/23 02:51:43;;;;;;;13.30;11.20;;;23.40;58.50;;;;;;31597064;28;20091;-53
2021/11/23 03:06:45;;;;;;;13.57;10.52;;;23.60;57.30;;;;;;31597877;28;20052;-46
2021/11/23 03:21:47;;;;;;;13.55;10.25;;;23.50;57.10;;;;;;31535368;28;20064;-43
2021/11/23 03:36:50;;;;;;;15.13;11.02;;;23.40;57.60;;;;;;31562089;28;20732;-54
2021/11/23 03:51:53;;;;;;;13.57;12.00;;;23.40;57.70;;;;;;31539707;28;20080;-40
2021/11/23 04:06:57;;;;;;;12.55;7.97;;;23.20;58.00;;;;;;31512496;28;20091;-39
2021/11/23 04:22:00;;;;;;;8.90;7.97;;;23.20;58.30;;;;;;31579765;28;20049;-46
2021/11/23 04:37:03;;;;;;;9.93;7.85;;;23.10;58.50;;;;;;31613126;28;20071;-40
2021/11/23 04:52:05;;;;;;;10.32;7.88;;;23.10;58.10;;;;;;31551879;28;20074;-44
2021/11/23 05:07:08;;;;;;;10.85;8.02;;;23.00;58.40;;;;;;31499973;28;20070;-44
2021/11/23 05:22:10;;;;;;;8.13;6.72;;;22.90;58.40;;;;;;31571865;28;20127;-40
2021/11/23 05:37:12;;;;;;;8.13;6.90;;;22.90;58.60;;;;;;31558435;28;20098;-40
2021/11/23 05:52:14;;;;;;;8.80;7.28;;;22.90;58.60;;;;;;31521997;28;20053;-38
2021/11/23 06:07:16;;;;;;;24.27;12.05;;;22.90;58.60;;;;;;31584009;28;20500;-40
2021/11/23 06:22:19;;;;;;;98.70;61.22;;;22.70;58.70;;;;;;31574106;28;20090;-52
2021/11/23 06:37:21;;;;;;;51.58;36.10;;;22.80;55.40;;;;;;31593869;28;20074;-50
2021/11/23 06:52:24;;;;;;;115.05;83.85;;;22.90;52.90;;;;;;31560694;28;20108;-46
2021/11/23 07:07:27;;;;;;;71.60;51.05;;;22.80;50.90;;;;;;31581443;28;20078;-46
2021/11/23 07:22:29;;;;;;;61.75;46.60;;;22.80;52.70;;;;;;31583539;28;20045;-51
2021/11/23 07:37:36;;;;;;;50.35;41.40;;;22.70;53.20;;;;;;31546288;28;20048;-48
2021/11/23 07:52:42;;;;;;;51.53;37.45;;;22.80;54.00;;;;;;31589338;28;20045;-49
2021/11/23 08:07:44;;;;;;;43.03;32.95;;;23.10;54.00;;;;;;31543836;28;20107;-45
2021/11/23 08:22:48;;;;;;;39.97;29.75;;;23.10;54.10;;;;;;31611257;28;20040;-48
2021/11/23 08:37:50;;;;;;;37.47;28.27;;;23.00;54.30;;;;;;31591592;28;20040;-52
2021/11/23 08:52:53;;;;;;;76.75;56.60;;;23.00;54.40;;;;;;31595728;28;20055;-46
2021/11/23 09:07:59;;;;;;;45.67;33.92;;;22.60;50.60;;;;;;31598075;28;20123;-45
2021/11/23 09:23:08;;;;;;;74.78;56.92;;;22.40;48.60;;;;;;31577620;28;20104;-47
2021/11/23 09:38:10;;;;;;;52.23;34.87;;;22.80;51.40;;;;;;31585593;28;20045;-46
2021/11/23 09:53:14;;;;;;;43.88;26.98;;;22.70;48.90;;;;;;31532371;28;20076;-40
2021/11/23 10:08:18;;;;;;;54.53;43.67;;;22.60;46.40;;;;;;31608028;28;20115;-41
2021/11/23 10:23:36;;;;;;;52.45;40.00;;;22.20;45.90;;;;;;31668359;28;20683;-39
2021/11/23 10:38:40;;;;;;;47.20;34.28;;;22.40;48.30;;;;;;31638323;28;20077;-39
2021/11/23 10:53:42;;;;;;;38.85;30.63;;;22.80;49.60;;;;;;31619763;28;20166;-45
2021/11/23 11:08:46;;;;;;;32.28;25.63;;;23.00;49.80;;;;;;31615178;28;20127;-47
2021/11/23 11:23:53;;;;;;;31.40;22.63;;;23.00;50.50;;;;;;31562013;28;20052;-40
2021/11/23 11:38:55;;;;;;;56.58;43.40;;;22.90;50.90;;;;;;31595622;28;20060;-40
2021/11/23 11:54:15;;;;;;;21.30;15.32;;;22.50;45.80;;;;;;31541009;28;20092;-44
2021/11/23 12:09:48;;;;;;;16.88;10.50;;;22.00;44.30;;;;;;31505488;28;20040;-39
2021/11/23 12:25:00;;;;;;;11.98;9.75;;;21.90;45.90;;;;;;31599419;28;20052;-43
2021/11/23 12:40:24;;;;;;;12.32;8.63;;;22.80;47.60;;;;;;31627100;28;20052;-47
2021/11/23 12:55:26;;;;;;;16.50;6.40;;;22.90;48.40;;;;;;31626398;28;20057;-43
2021/11/23 13:10:30;;;;;;;7.38;5.63;;;22.50;45.30;;;;;;31573667;28;20104;-53
2021/11/23 13:25:33;;;;;;;13.27;6.22;;;22.70;48.30;;;;;;31525918;28;20078;-52
2021/11/23 13:40:42;;;;;;;9.48;5.80;;;22.60;49.10;;;;;;31491634;28;20040;-54
2021/11/23 13:55:44;;;;;;;9.80;5.23;;;22.50;49.60;;;;;;31485740;28;20056;-50
2021/11/23 14:26:51;;;;;;;5.43;3.72;;;23.00;49.70;;;;;;31635088;28;20037;-49
2021/11/23 14:41:53;;;;;;;9.27;3.60;;;23.00;49.90;;;;;;31639781;28;20073;-52
2021/11/23 14:56:55;;;;;;;6.93;3.47;;;22.90;50.30;;;;;;31636155;28;20072;-53
2021/11/23 15:11:57;;;;;;;8.85;3.78;;;22.90;50.70;;;;;;31614089;28;20729;-52
2021/11/23 15:27:00;;;;;;;19.05;3.05;;;22.70;50.80;;;;;;31253453;28;9999687;-55
2021/11/23 15:42:02;;;;;;;11.43;3.70;;;22.80;51.50;;;;;;31503121;28;20071;-48
2021/11/23 15:57:04;;;;;;;11.98;2.85;;;23.20;52.20;;;;;;31477674;28;20052;-46
2021/11/23 16:12:07;;;;;;;4.45;2.45;;;23.30;52.80;;;;;;31492275;28;20040;-51
2021/11/23 16:27:09;;;;;;;3.90;2.30;;;23.30;52.20;;;;;;31582898;28;20078;-48
2021/11/23 16:42:12;;;;;;;4.25;2.42;;;23.20;52.20;;;;;;31607611;28;20041;-43
2021/11/23 16:57:15;;;;;;;5.93;2.00;;;23.10;52.50;;;;;;31596739;28;20080;-46
2021/11/23 17:12:17;;;;;;;2.75;1.80;;;23.00;52.50;;;;;;31607364;28;20123;-53
2021/11/23 17:27:21;;;;;;;5.60;2.30;;;23.00;52.80;;;;;;31573562;28;20044;-48
2021/11/23 17:42:24;;;;;;;10.82;2.30;;;22.90;53.10;;;;;;31538107;28;20041;-48
2021/11/23 17:57:28;;;;;;;13.88;2.95;;;22.80;53.40;;;;;;31620976;28;20082;-47
2021/11/23 18:12:30;;;;;;;8.55;2.10;;;22.70;53.80;;;;;;31654784;28;20078;-46
2021/11/23 18:27:32;;;;;;;6.65;2.60;;;23.00;53.90;;;;;;31631342;28;20760;-44
2021/11/23 18:42:34;;;;;;;9.07;3.05;;;23.40;53.80;;;;;;31195028;28;10000170;-48
2021/11/23 18:57:40;;;;;;;6.22;2.22;;;23.40;54.70;;;;;;31501223;28;20052;-42
2021/11/23 19:12:45;;;;;;;8.00;2.63;;;23.40;54.60;;;;;;31532646;28;20044;-44
2021/11/23 19:27:47;;;;;;;6.65;2.42;;;23.30;55.10;;;;;;31577291;28;20040;-48
2021/11/23 19:42:51;;;;;;;7.32;2.88;;;23.20;55.30;;;;;;31634439;28;20056;-42
2021/11/23 19:57:56;;;;;;;7.35;2.83;;;23.10;55.10;;;;;;31632196;28;20063;-45
2021/11/23 20:12:59;;;;;;;4.68;2.55;;;23.00;54.70;;;;;;31633953;28;20044;-46
2021/11/23 20:28:01;;;;;;;15.18;2.70;;;23.00;55.00;;;;;;31632194;28;20045;-39
2021/11/23 20:43:04;;;;;;;9.25;2.40;;;23.00;55.30;;;;;;31627975;28;20055;-49
2021/11/23 20:58:07;;;;;;;24.33;17.17;;;23.00;55.20;;;;;;31623820;28;20080;-46
2021/11/23 21:13:09;;;;;;;23.98;14.77;;;23.00;54.70;;;;;;31621856;28;20044;-43
2021/11/23 21:28:11;;;;;;;15.98;12.85;;;22.90;55.00;;;;;;31622026;28;20044;-47
2021/11/23 21:58:18;;;;;;;12.77;7.38;;;22.90;55.40;;;;;;31665035;28;20059;-38
2021/11/23 22:13:20;;;;;;;26.75;18.48;;;22.70;54.30;;;;;;31661325;28;20064;-43
2021/11/23 22:28:22;;;;;;;20.10;16.25;;;22.80;55.20;;;;;;31658396;28;20138;-42
2021/11/23 22:43:24;;;;;;;43.90;27.98;;;22.80;55.30;;;;;;31651658;28;20044;-44
2021/11/23 22:58:26;;;;;;;26.48;17.50;;;22.80;54.60;;;;;;31635011;28;20052;-47
2021/11/23 23:13:29;;;;;;;20.83;16.92;;;22.80;55.70;;;;;;31624489;28;20049;-50
2021/11/23 23:28:35;;;;;;;26.98;15.43;;;22.80;55.90;;;;;;31623648;28;20552;-40
2021/11/23 23:43:38;;;;;;;17.33;13.68;;;22.80;55.90;;;;;;31623902;28;20044;-37
2021/11/23 23:58:40;;;;;;;18.08;14.48;;;22.90;56.10;;;;;;31627991;28;20163;-48
